sensor_id;sensor_type;location;lat;lon;timestamp;P1;durP1;ratioP1;P2;durP2;ratioP2
14732;SDS011;7457;50.960;6.830;2023-03-16T00:01:40;7.05;;;6.35;;
14732;SDS011;7457;50.960;6.830;2023-03-16T00:04:06;8.82;;;6.50;;
14732;SDS011;7457;50.960;6.830;2023-03-16T00:06:31;8.02;;;6.10;;
14732;SDS011;7457;50.960;6.830;2023-03-16T00:08:57;9.20;;;5.75;;
14732;SDS011;7457;50.960;6.830;2023-03-16T00:11:23;8.18;;;6.28;;
14732;SDS011;7457;50.960;6.830;2023-03-16T00:13:50;10.85;;;5.93;;
14732;SDS011;7457;50.960;6.830;2023-03-16T00:16:16;9.35;;;6.53;;
14732;SDS011;7457;50.960;6.830;2023-03-16T00:18:41;8.55;;;6.35;;
14732;SDS011;7457;50.960;6.830;2023-03-16T00:21:07;9.95;;;7.70;;
14732;SDS011;7457;50.960;6.830;2023-03-16T00:23:33;9.52;;;6.97;;
14732;SDS011;7457;50.960;6.830;2023-03-16T00:26:00;10.65;;;6.50;;
14732;SDS011;7457;50.960;6.830;2023-03-16T00:28:28;8.07;;;6.70;;
14732;SDS011;7457;50.960;6.830;2023-03-16T00:30:59;7.97;;;6.10;;
14732;SDS011;7457;50.960;6.830;2023-03-16T00:33:25;7.78;;;5.90;;
14732;SDS011;7457;50.960;6.830;2023-03-16T00:35:51;7.32;;;5.90;;
14732;SDS011;7457;50.960;6.830;2023-03-16T00:38:26;8.50;;;6.28;;
14732;SDS011;7457;50.960;6.830;2023-03-16T00:40:52;11.63;;;6.53;;
14732;SDS011;7457;50.960;6.830;2023-03-16T00:43:18;7.80;;;6.00;;
14732;SDS011;7457;50.960;6.830;2023-03-16T00:45:44;9.55;;;6.00;;
14732;SDS011;7457;50.960;6.830;2023-03-16T00:48:10;7.03;;;5.50;;
14732;SDS011;7457;50.960;6.830;2023-03-16T00:50:36;6.15;;;5.45;;
14732;SDS011;7457;50.960;6.830;2023-03-16T00:53:02;6.28;;;5.68;;
14732;SDS011;7457;50.960;6.830;2023-03-16T00:55:28;8.05;;;6.03;;
14732;SDS011;7457;50.960;6.830;2023-03-16T00:57:53;7.95;;;6.00;;
14732;SDS011;7457;50.960;6.830;2023-03-16T01:00:20;7.97;;;5.82;;
14732;SDS011;7457;50.960;6.830;2023-03-16T01:02:46;7.95;;;6.78;;
14732;SDS011;7457;50.960;6.830;2023-03-16T01:05:12;9.15;;;5.72;;
14732;SDS011;7457;50.960;6.830;2023-03-16T01:07:39;7.13;;;5.50;;
14732;SDS011;7457;50.960;6.830;2023-03-16T01:10:06;6.68;;;5.95;;
14732;SDS011;7457;50.960;6.830;2023-03-16T01:12:33;8.13;;;6.20;;
14732;SDS011;7457;50.960;6.830;2023-03-16T01:14:59;6.50;;;5.68;;
14732;SDS011;7457;50.960;6.830;2023-03-16T01:17:25;6.72;;;5.40;;
14732;SDS011;7457;50.960;6.830;2023-03-16T01:19:51;7.90;;;5.78;;
14732;SDS011;7457;50.960;6.830;2023-03-16T01:22:16;6.78;;;4.72;;
14732;SDS011;7457;50.960;6.830;2023-03-16T01:24:43;6.50;;;4.88;;
14732;SDS011;7457;50.960;6.830;2023-03-16T01:27:09;6.43;;;5.05;;
14732;SDS011;7457;50.960;6.830;2023-03-16T01:29:37;7.90;;;5.53;;
14732;SDS011;7457;50.960;6.830;2023-03-16T01:32:03;7.55;;;5.63;;
14732;SDS011;7457;50.960;6.830;2023-03-16T01:34:29;6.82;;;5.13;;
14732;SDS011;7457;50.960;6.830;2023-03-16T01:36:55;6.03;;;5.35;;
14732;SDS011;7457;50.960;6.830;2023-03-16T01:39:21;6.13;;;5.45;;
14732;SDS011;7457;50.960;6.830;2023-03-16T01:41:47;6.35;;;5.53;;
14732;SDS011;7457;50.960;6.830;2023-03-16T01:44:21;7.95;;;4.93;;
14732;SDS011;7457;50.960;6.830;2023-03-16T01:46:52;7.38;;;5.53;;
14732;SDS011;7457;50.960;6.830;2023-03-16T01:52:04;7.82;;;5.32;;
14732;SDS011;7457;50.960;6.830;2023-03-16T01:54:39;7.80;;;4.50;;
14732;SDS011;7457;50.960;6.830;2023-03-16T01:57:09;6.60;;;4.97;;
14732;SDS011;7457;50.960;6.830;2023-03-16T01:59:49;8.25;;;4.93;;
14732;SDS011;7457;50.960;6.830;2023-03-16T02:02:20;6.18;;;4.38;;
14732;SDS011;7457;50.960;6.830;2023-03-16T02:07:33;7.93;;;5.40;;
14732;SDS011;7457;50.960;6.830;2023-03-16T02:10:04;7.40;;;5.63;;
14732;SDS011;7457;50.960;6.830;2023-03-16T02:12:31;7.07;;;5.32;;
14732;SDS011;7457;50.960;6.830;2023-03-16T02:14:57;9.07;;;5.00;;
14732;SDS011;7457;50.960;6.830;2023-03-16T02:17:24;6.47;;;4.72;;
14732;SDS011;7457;50.960;6.830;2023-03-16T02:22:43;7.60;;;5.32;;
14732;SDS011;7457;50.960;6.830;2023-03-16T02:25:12;6.82;;;4.97;;
14732;SDS011;7457;50.960;6.830;2023-03-16T02:30:49;6.75;;;4.53;;
14732;SDS011;7457;50.960;6.830;2023-03-16T02:33:15;6.03;;;4.90;;
14732;SDS011;7457;50.960;6.830;2023-03-16T02:35:43;5.43;;;4.93;;
14732;SDS011;7457;50.960;6.830;2023-03-16T02:38:08;6.57;;;5.13;;
14732;SDS011;7457;50.960;6.830;2023-03-16T02:40:35;6.28;;;4.47;;
14732;SDS011;7457;50.960;6.830;2023-03-16T02:43:04;7.05;;;4.75;;
14732;SDS011;7457;50.960;6.830;2023-03-16T02:45:35;11.05;;;5.70;;
14732;SDS011;7457;50.960;6.830;2023-03-16T02:48:01;10.25;;;5.40;;
14732;SDS011;7457;50.960;6.830;2023-03-16T02:50:33;6.18;;;4.82;;
14732;SDS011;7457;50.960;6.830;2023-03-16T02:52:59;4.68;;;4.28;;
14732;SDS011;7457;50.960;6.830;2023-03-16T02:55:24;5.93;;;4.82;;
14732;SDS011;7457;50.960;6.830;2023-03-16T02:57:50;8.15;;;4.45;;
14732;SDS011;7457;50.960;6.830;2023-03-16T03:00:16;6.93;;;4.35;;
14732;SDS011;7457;50.960;6.830;2023-03-16T03:02:43;6.20;;;4.57;;
14732;SDS011;7457;50.960;6.830;2023-03-16T03:05:10;6.63;;;5.05;;
14732;SDS011;7457;50.960;6.830;2023-03-16T03:07:36;5.88;;;4.57;;
14732;SDS011;7457;50.960;6.830;2023-03-16T03:10:03;5.35;;;4.18;;
14732;SDS011;7457;50.960;6.830;2023-03-16T03:12:30;6.07;;;4.80;;
14732;SDS011;7457;50.960;6.830;2023-03-16T03:14:56;5.85;;;4.50;;
14732;SDS011;7457;50.960;6.830;2023-03-16T03:17:23;4.25;;;3.85;;
14732;SDS011;7457;50.960;6.830;2023-03-16T03:19:54;5.32;;;4.00;;
14732;SDS011;7457;50.960;6.830;2023-03-16T03:22:20;6.43;;;4.13;;
14732;SDS011;7457;50.960;6.830;2023-03-16T03:24:46;4.75;;;4.15;;
14732;SDS011;7457;50.960;6.830;2023-03-16T03:27:11;6.85;;;4.45;;
14732;SDS011;7457;50.960;6.830;2023-03-16T03:29:37;4.85;;;3.97;;
14732;SDS011;7457;50.960;6.830;2023-03-16T03:32:03;4.38;;;3.97;;
14732;SDS011;7457;50.960;6.830;2023-03-16T03:34:29;5.50;;;4.80;;
14732;SDS011;7457;50.960;6.830;2023-03-16T03:36:56;4.82;;;4.00;;
14732;SDS011;7457;50.960;6.830;2023-03-16T03:39:22;7.30;;;4.43;;
14732;SDS011;7457;50.960;6.830;2023-03-16T03:41:48;4.57;;;3.75;;
14732;SDS011;7457;50.960;6.830;2023-03-16T03:44:18;4.47;;;4.00;;
14732;SDS011;7457;50.960;6.830;2023-03-16T03:46:47;4.20;;;3.80;;
14732;SDS011;7457;50.960;6.830;2023-03-16T03:49:14;5.55;;;4.28;;
14732;SDS011;7457;50.960;6.830;2023-03-16T03:51:39;5.78;;;4.10;;
14732;SDS011;7457;50.960;6.830;2023-03-16T03:54:05;4.20;;;3.75;;
14732;SDS011;7457;50.960;6.830;2023-03-16T03:56:32;5.45;;;4.00;;
14732;SDS011;7457;50.960;6.830;2023-03-16T03:58:57;4.78;;;3.95;;
14732;SDS011;7457;50.960;6.830;2023-03-16T04:01:23;3.95;;;3.65;;
14732;SDS011;7457;50.960;6.830;2023-03-16T04:03:49;3.97;;;3.58;;
14732;SDS011;7457;50.960;6.830;2023-03-16T04:06:14;4.30;;;3.70;;
14732;SDS011;7457;50.960;6.830;2023-03-16T04:08:40;4.50;;;3.65;;
14732;SDS011;7457;50.960;6.830;2023-03-16T04:11:06;5.20;;;3.90;;
14732;SDS011;7457;50.960;6.830;2023-03-16T04:13:32;6.03;;;3.97;;
14732;SDS011;7457;50.960;6.830;2023-03-16T04:15:58;4.57;;;3.42;;
14732;SDS011;7457;50.960;6.830;2023-03-16T04:18:26;5.18;;;3.53;;
14732;SDS011;7457;50.960;6.830;2023-03-16T04:20:53;4.28;;;3.88;;
14732;SDS011;7457;50.960;6.830;2023-03-16T04:23:19;4.75;;;4.28;;
14732;SDS011;7457;50.960;6.830;2023-03-16T04:25:45;4.55;;;4.05;;
14732;SDS011;7457;50.960;6.830;2023-03-16T04:28:11;5.72;;;3.80;;
14732;SDS011;7457;50.960;6.830;2023-03-16T04:30:37;8.70;;;4.70;;
14732;SDS011;7457;50.960;6.830;2023-03-16T04:33:03;4.93;;;4.45;;
14732;SDS011;7457;50.960;6.830;2023-03-16T04:35:28;5.07;;;4.57;;
14732;SDS011;7457;50.960;6.830;2023-03-16T04:37:55;6.75;;;4.80;;
14732;SDS011;7457;50.960;6.830;2023-03-16T04:40:21;5.70;;;4.55;;
14732;SDS011;7457;50.960;6.830;2023-03-16T04:42:47;7.22;;;4.80;;
14732;SDS011;7457;50.960;6.830;2023-03-16T04:45:13;7.88;;;4.45;;
14732;SDS011;7457;50.960;6.830;2023-03-16T04:47:41;4.45;;;4.00;;
14732;SDS011;7457;50.960;6.830;2023-03-16T04:50:07;4.43;;;3.85;;
14732;SDS011;7457;50.960;6.830;2023-03-16T04:52:34;5.30;;;4.80;;
14732;SDS011;7457;50.960;6.830;2023-03-16T04:55:00;4.72;;;4.28;;
14732;SDS011;7457;50.960;6.830;2023-03-16T04:57:26;9.68;;;6.47;;
14732;SDS011;7457;50.960;6.830;2023-03-16T04:59:51;7.53;;;4.63;;
14732;SDS011;7457;50.960;6.830;2023-03-16T05:02:17;4.93;;;4.38;;
14732;SDS011;7457;50.960;6.830;2023-03-16T05:04:44;8.57;;;4.85;;
14732;SDS011;7457;50.960;6.830;2023-03-16T05:07:09;6.85;;;4.68;;
14732;SDS011;7457;50.960;6.830;2023-03-16T05:09:35;8.32;;;5.13;;
14732;SDS011;7457;50.960;6.830;2023-03-16T05:12:01;4.53;;;3.97;;
14732;SDS011;7457;50.960;6.830;2023-03-16T05:14:26;6.88;;;5.13;;
14732;SDS011;7457;50.960;6.830;2023-03-16T05:16:52;4.90;;;4.00;;
14732;SDS011;7457;50.960;6.830;2023-03-16T05:19:18;7.63;;;5.45;;
14732;SDS011;7457;50.960;6.830;2023-03-16T05:21:43;5.63;;;4.88;;
14732;SDS011;7457;50.960;6.830;2023-03-16T05:24:09;4.97;;;4.32;;
14732;SDS011;7457;50.960;6.830;2023-03-16T05:26:36;8.57;;;5.53;;
14732;SDS011;7457;50.960;6.830;2023-03-16T05:29:02;5.40;;;4.63;;
14732;SDS011;7457;50.960;6.830;2023-03-16T05:31:27;5.38;;;4.50;;
14732;SDS011;7457;50.960;6.830;2023-03-16T05:33:56;5.78;;;4.50;;
14732;SDS011;7457;50.960;6.830;2023-03-16T05:36:22;5.15;;;4.65;;
14732;SDS011;7457;50.960;6.830;2023-03-16T05:38:48;5.50;;;4.68;;
14732;SDS011;7457;50.960;6.830;2023-03-16T05:41:15;5.38;;;4.72;;
14732;SDS011;7457;50.960;6.830;2023-03-16T05:43:42;4.93;;;4.38;;
14732;SDS011;7457;50.960;6.830;2023-03-16T05:46:08;6.22;;;4.40;;
14732;SDS011;7457;50.960;6.830;2023-03-16T05:48:34;5.85;;;4.68;;
14732;SDS011;7457;50.960;6.830;2023-03-16T05:51:00;6.05;;;5.05;;
14732;SDS011;7457;50.960;6.830;2023-03-16T05:53:29;7.75;;;5.65;;
14732;SDS011;7457;50.960;6.830;2023-03-16T05:55:56;6.32;;;4.72;;
14732;SDS011;7457;50.960;6.830;2023-03-16T05:58:21;5.63;;;4.45;;
14732;SDS011;7457;50.960;6.830;2023-03-16T06:00:47;8.60;;;5.35;;
14732;SDS011;7457;50.960;6.830;2023-03-16T06:03:14;5.63;;;4.88;;
14732;SDS011;7457;50.960;6.830;2023-03-16T06:05:40;6.30;;;5.07;;
14732;SDS011;7457;50.960;6.830;2023-03-16T06:08:06;7.40;;;5.68;;
14732;SDS011;7457;50.960;6.830;2023-03-16T06:10:33;8.38;;;5.20;;
14732;SDS011;7457;50.960;6.830;2023-03-16T06:12:59;6.90;;;5.20;;
14732;SDS011;7457;50.960;6.830;2023-03-16T06:15:25;7.95;;;5.50;;
14732;SDS011;7457;50.960;6.830;2023-03-16T06:17:50;7.88;;;5.50;;
14732;SDS011;7457;50.960;6.830;2023-03-16T06:20:16;5.53;;;5.03;;
14732;SDS011;7457;50.960;6.830;2023-03-16T06:22:42;6.82;;;5.00;;
14732;SDS011;7457;50.960;6.830;2023-03-16T06:25:09;5.90;;;5.07;;
14732;SDS011;7457;50.960;6.830;2023-03-16T06:27:36;6.05;;;5.28;;
14732;SDS011;7457;50.960;6.830;2023-03-16T06:30:03;8.05;;;5.10;;
14732;SDS011;7457;50.960;6.830;2023-03-16T06:32:30;6.20;;;5.60;;
14732;SDS011;7457;50.960;6.830;2023-03-16T06:34:56;9.23;;;6.00;;
14732;SDS011;7457;50.960;6.830;2023-03-16T06:37:23;6.72;;;5.60;;
14732;SDS011;7457;50.960;6.830;2023-03-16T06:39:49;7.32;;;5.55;;
14732;SDS011;7457;50.960;6.830;2023-03-16T06:42:15;8.00;;;5.38;;
14732;SDS011;7457;50.960;6.830;2023-03-16T06:44:40;8.63;;;5.28;;
14732;SDS011;7457;50.960;6.830;2023-03-16T06:47:06;6.05;;;5.45;;
14732;SDS011;7457;50.960;6.830;2023-03-16T06:49:33;7.45;;;5.07;;
14732;SDS011;7457;50.960;6.830;2023-03-16T06:51:58;7.65;;;5.60;;
14732;SDS011;7457;50.960;6.830;2023-03-16T06:54:25;6.85;;;5.22;;
14732;SDS011;7457;50.960;6.830;2023-03-16T06:56:51;6.45;;;5.47;;
14732;SDS011;7457;50.960;6.830;2023-03-16T06:59:17;7.10;;;6.10;;
14732;SDS011;7457;50.960;6.830;2023-03-16T07:01:42;7.43;;;5.15;;
14732;SDS011;7457;50.960;6.830;2023-03-16T07:04:09;7.55;;;5.55;;
14732;SDS011;7457;50.960;6.830;2023-03-16T07:06:36;7.32;;;5.10;;
14732;SDS011;7457;50.960;6.830;2023-03-16T07:09:02;6.20;;;5.53;;
14732;SDS011;7457;50.960;6.830;2023-03-16T07:11:29;8.32;;;5.18;;
14732;SDS011;7457;50.960;6.830;2023-03-16T07:13:56;8.18;;;5.30;;
14732;SDS011;7457;50.960;6.830;2023-03-16T07:16:22;7.85;;;5.93;;
14732;SDS011;7457;50.960;6.830;2023-03-16T07:18:48;8.65;;;4.88;;
14732;SDS011;7457;50.960;6.830;2023-03-16T07:21:14;7.75;;;5.70;;
14732;SDS011;7457;50.960;6.830;2023-03-16T07:23:40;8.10;;;5.22;;
14732;SDS011;7457;50.960;6.830;2023-03-16T07:26:05;10.07;;;5.03;;
14732;SDS011;7457;50.960;6.830;2023-03-16T07:28:32;7.85;;;5.38;;
14732;SDS011;7457;50.960;6.830;2023-03-16T07:30:58;6.53;;;5.82;;
14732;SDS011;7457;50.960;6.830;2023-03-16T07:33:24;6.10;;;5.50;;
14732;SDS011;7457;50.960;6.830;2023-03-16T07:35:50;8.68;;;5.90;;
14732;SDS011;7457;50.960;6.830;2023-03-16T07:38:16;7.75;;;5.50;;
14732;SDS011;7457;50.960;6.830;2023-03-16T07:40:41;7.85;;;5.68;;
14732;SDS011;7457;50.960;6.830;2023-03-16T07:43:07;5.43;;;4.60;;
14732;SDS011;7457;50.960;6.830;2023-03-16T07:45:33;9.35;;;5.30;;
14732;SDS011;7457;50.960;6.830;2023-03-16T07:47:58;6.60;;;5.90;;
14732;SDS011;7457;50.960;6.830;2023-03-16T07:50:24;7.57;;;5.00;;
14732;SDS011;7457;50.960;6.830;2023-03-16T07:52:50;6.03;;;5.13;;
14732;SDS011;7457;50.960;6.830;2023-03-16T07:55:16;6.22;;;4.97;;
14732;SDS011;7457;50.960;6.830;2023-03-16T07:57:42;6.22;;;5.38;;
14732;SDS011;7457;50.960;6.830;2023-03-16T08:00:11;7.07;;;5.30;;
14732;SDS011;7457;50.960;6.830;2023-03-16T08:02:38;6.95;;;5.50;;
14732;SDS011;7457;50.960;6.830;2023-03-16T08:05:04;7.95;;;4.88;;
14732;SDS011;7457;50.960;6.830;2023-03-16T08:07:30;7.75;;;5.47;;
14732;SDS011;7457;50.960;6.830;2023-03-16T08:09:56;6.80;;;5.38;;
14732;SDS011;7457;50.960;6.830;2023-03-16T08:12:22;6.10;;;5.50;;
14732;SDS011;7457;50.960;6.830;2023-03-16T08:14:47;6.15;;;5.00;;
14732;SDS011;7457;50.960;6.830;2023-03-16T08:17:13;9.48;;;5.88;;
14732;SDS011;7457;50.960;6.830;2023-03-16T08:19:39;6.78;;;6.15;;
14732;SDS011;7457;50.960;6.830;2023-03-16T08:22:04;5.88;;;5.20;;
14732;SDS011;7457;50.960;6.830;2023-03-16T08:24:31;7.30;;;4.60;;
14732;SDS011;7457;50.960;6.830;2023-03-16T08:26:57;7.03;;;5.35;;
14732;SDS011;7457;50.960;6.830;2023-03-16T08:29:24;7.18;;;5.35;;
14732;SDS011;7457;50.960;6.830;2023-03-16T08:31:51;5.28;;;4.72;;
14732;SDS011;7457;50.960;6.830;2023-03-16T08:34:20;7.05;;;5.55;;
14732;SDS011;7457;50.960;6.830;2023-03-16T08:36:46;6.00;;;5.40;;
14732;SDS011;7457;50.960;6.830;2023-03-16T08:39:12;6.53;;;5.18;;
14732;SDS011;7457;50.960;6.830;2023-03-16T08:41:37;5.30;;;4.78;;
14732;SDS011;7457;50.960;6.830;2023-03-16T08:44:04;5.82;;;5.20;;
14732;SDS011;7457;50.960;6.830;2023-03-16T08:46:31;6.15;;;5.53;;
14732;SDS011;7457;50.960;6.830;2023-03-16T08:48:58;5.88;;;5.30;;
14732;SDS011;7457;50.960;6.830;2023-03-16T08:51:24;5.15;;;4.65;;
14732;SDS011;7457;50.960;6.830;2023-03-16T08:53:49;5.18;;;4.20;;
14732;SDS011;7457;50.960;6.830;2023-03-16T08:56:15;6.70;;;4.43;;
14732;SDS011;7457;50.960;6.830;2023-03-16T08:58:41;4.75;;;4.30;;
14732;SDS011;7457;50.960;6.830;2023-03-16T09:01:09;5.72;;;4.90;;
14732;SDS011;7457;50.960;6.830;2023-03-16T09:03:37;6.32;;;4.63;;
14732;SDS011;7457;50.960;6.830;2023-03-16T09:06:06;5.25;;;4.75;;
14732;SDS011;7457;50.960;6.830;2023-03-16T09:08:33;4.50;;;4.10;;
14732;SDS011;7457;50.960;6.830;2023-03-16T09:13:26;6.40;;;4.75;;
14732;SDS011;7457;50.960;6.830;2023-03-16T09:15:52;6.00;;;4.13;;
14732;SDS011;7457;50.960;6.830;2023-03-16T09:18:18;6.45;;;4.90;;
14732;SDS011;7457;50.960;6.830;2023-03-16T09:20:44;5.93;;;5.15;;
14732;SDS011;7457;50.960;6.830;2023-03-16T09:23:12;6.38;;;4.82;;
14732;SDS011;7457;50.960;6.830;2023-03-16T09:25:38;4.47;;;4.05;;
14732;SDS011;7457;50.960;6.830;2023-03-16T09:28:04;6.57;;;4.95;;
14732;SDS011;7457;50.960;6.830;2023-03-16T09:30:30;5.20;;;4.70;;
14732;SDS011;7457;50.960;6.830;2023-03-16T09:32:56;4.75;;;3.97;;
14732;SDS011;7457;50.960;6.830;2023-03-16T09:35:23;5.88;;;4.50;;
14732;SDS011;7457;50.960;6.830;2023-03-16T09:37:50;6.88;;;4.90;;
14732;SDS011;7457;50.960;6.830;2023-03-16T09:40:20;5.28;;;4.78;;
14732;SDS011;7457;50.960;6.830;2023-03-16T09:42:57;5.22;;;4.72;;
14732;SDS011;7457;50.960;6.830;2023-03-16T09:45:51;5.15;;;4.65;;
14732;SDS011;7457;50.960;6.830;2023-03-16T09:48:27;7.88;;;5.05;;
14732;SDS011;7457;50.960;6.830;2023-03-16T09:50:57;5.95;;;5.38;;
14732;SDS011;7457;50.960;6.830;2023-03-16T09:53:27;5.75;;;4.90;;
14732;SDS011;7457;50.960;6.830;2023-03-16T09:55:58;7.28;;;5.03;;
14732;SDS011;7457;50.960;6.830;2023-03-16T09:58:40;5.80;;;5.20;;
14732;SDS011;7457;50.960;6.830;2023-03-16T10:06:54;8.55;;;5.13;;
14732;SDS011;7457;50.960;6.830;2023-03-16T10:09:35;5.38;;;4.40;;
14732;SDS011;7457;50.960;6.830;2023-03-16T10:12:07;6.97;;;5.63;;
14732;SDS011;7457;50.960;6.830;2023-03-16T10:14:44;7.15;;;4.93;;
14732;SDS011;7457;50.960;6.830;2023-03-16T10:17:16;6.70;;;5.60;;
14732;SDS011;7457;50.960;6.830;2023-03-16T10:22:48;6.68;;;5.65;;
14732;SDS011;7457;50.960;6.830;2023-03-16T10:25:24;8.85;;;5.43;;
14732;SDS011;7457;50.960;6.830;2023-03-16T10:28:03;6.47;;;5.25;;
14732;SDS011;7457;50.960;6.830;2023-03-16T10:30:30;5.60;;;5.10;;
14732;SDS011;7457;50.960;6.830;2023-03-16T10:33:02;6.30;;;5.30;;
14732;SDS011;7457;50.960;6.830;2023-03-16T10:35:40;5.60;;;4.97;;
14732;SDS011;7457;50.960;6.830;2023-03-16T10:38:49;5.40;;;4.85;;
14732;SDS011;7457;50.960;6.830;2023-03-16T10:41:29;4.75;;;4.35;;
14732;SDS011;7457;50.960;6.830;2023-03-16T10:47:06;8.60;;;4.25;;
14732;SDS011;7457;50.960;6.830;2023-03-16T10:49:41;6.25;;;5.05;;
14732;SDS011;7457;50.960;6.830;2023-03-16T10:52:21;6.80;;;4.57;;
14732;SDS011;7457;50.960;6.830;2023-03-16T10:54:59;6.65;;;4.97;;
14732;SDS011;7457;50.960;6.830;2023-03-16T10:57:32;5.05;;;4.55;;
14732;SDS011;7457;50.960;6.830;2023-03-16T11:00:22;4.47;;;4.07;;
14732;SDS011;7457;50.960;6.830;2023-03-16T11:03:23;7.03;;;4.65;;
14732;SDS011;7457;50.960;6.830;2023-03-16T11:05:57;4.63;;;4.10;;
14732;SDS011;7457;50.960;6.830;2023-03-16T11:08:27;6.20;;;5.57;;
14732;SDS011;7457;50.960;6.830;2023-03-16T11:10:58;5.72;;;5.07;;
14732;SDS011;7457;50.960;6.830;2023-03-16T11:13:33;4.80;;;4.30;;
14732;SDS011;7457;50.960;6.830;2023-03-16T11:16:15;6.35;;;5.10;;
14732;SDS011;7457;50.960;6.830;2023-03-16T11:18:55;5.70;;;4.57;;
14732;SDS011;7457;50.960;6.830;2023-03-16T11:24:02;6.75;;;5.05;;
14732;SDS011;7457;50.960;6.830;2023-03-16T11:26:34;5.70;;;4.25;;
14732;SDS011;7457;50.960;6.830;2023-03-16T11:29:18;6.28;;;4.22;;
14732;SDS011;7457;50.960;6.830;2023-03-16T11:32:03;5.95;;;4.78;;
14732;SDS011;7457;50.960;6.830;2023-03-16T11:34:31;5.82;;;4.45;;
14732;SDS011;7457;50.960;6.830;2023-03-16T11:53:18;5.10;;;3.95;;
14732;SDS011;7457;50.960;6.830;2023-03-16T11:58:39;5.88;;;3.90;;
14732;SDS011;7457;50.960;6.830;2023-03-16T12:04:02;5.57;;;4.32;;
14732;SDS011;7457;50.960;6.830;2023-03-16T12:06:48;4.60;;;4.07;;
14732;SDS011;7457;50.960;6.830;2023-03-16T12:17:28;3.33;;;3.03;;
14732;SDS011;7457;50.960;6.830;2023-03-16T12:20:00;5.15;;;3.28;;
14732;SDS011;7457;50.960;6.830;2023-03-16T12:22:34;5.13;;;3.60;;
14732;SDS011;7457;50.960;6.830;2023-03-16T12:25:12;4.53;;;3.25;;
14732;SDS011;7457;50.960;6.830;2023-03-16T12:27:46;4.70;;;3.40;;
14732;SDS011;7457;50.960;6.830;2023-03-16T12:32:54;3.35;;;2.80;;
14732;SDS011;7457;50.960;6.830;2023-03-16T12:49:32;2.60;;;2.40;;
14732;SDS011;7457;50.960;6.830;2023-03-16T12:52:02;4.88;;;3.10;;
14732;SDS011;7457;50.960;6.830;2023-03-16T12:54:29;3.70;;;2.63;;
14732;SDS011;7457;50.960;6.830;2023-03-16T12:56:59;3.30;;;2.92;;
14732;SDS011;7457;50.960;6.830;2023-03-16T12:59:53;4.18;;;2.78;;
14732;SDS011;7457;50.960;6.830;2023-03-16T13:02:24;4.32;;;2.63;;
14732;SDS011;7457;50.960;6.830;2023-03-16T13:05:00;5.13;;;2.88;;
14732;SDS011;7457;50.960;6.830;2023-03-16T13:07:45;2.90;;;2.60;;
14732;SDS011;7457;50.960;6.830;2023-03-16T13:10:15;3.10;;;2.80;;
14732;SDS011;7457;50.960;6.830;2023-03-16T13:12:44;4.43;;;2.65;;
14732;SDS011;7457;50.960;6.830;2023-03-16T13:17:44;4.40;;;2.92;;
14732;SDS011;7457;50.960;6.830;2023-03-16T13:22:43;4.35;;;3.70;;
14732;SDS011;7457;50.960;6.830;2023-03-16T13:25:18;4.85;;;2.83;;
14732;SDS011;7457;50.960;6.830;2023-03-16T13:27:49;3.67;;;2.45;;
14732;SDS011;7457;50.960;6.830;2023-03-16T13:30:26;5.30;;;2.90;;
14732;SDS011;7457;50.960;6.830;2023-03-16T13:32:55;4.57;;;3.28;;
14732;SDS011;7457;50.960;6.830;2023-03-16T13:35:26;5.20;;;2.90;;
14732;SDS011;7457;50.960;6.830;2023-03-16T13:37:53;4.25;;;3.33;;
14732;SDS011;7457;50.960;6.830;2023-03-16T13:40:24;7.30;;;2.78;;
14732;SDS011;7457;50.960;6.830;2023-03-16T13:42:51;3.08;;;2.78;;
14732;SDS011;7457;50.960;6.830;2023-03-16T13:45:20;4.00;;;2.80;;
14732;SDS011;7457;50.960;6.830;2023-03-16T13:47:48;2.95;;;2.60;;
14732;SDS011;7457;50.960;6.830;2023-03-16T13:50:15;3.10;;;2.22;;
14732;SDS011;7457;50.960;6.830;2023-03-16T13:52:55;3.95;;;2.70;;
14732;SDS011;7457;50.960;6.830;2023-03-16T13:55:25;2.95;;;2.65;;
14732;SDS011;7457;50.960;6.830;2023-03-16T13:57:56;3.40;;;2.50;;
14732;SDS011;7457;50.960;6.830;2023-03-16T14:00:23;3.40;;;2.55;;
14732;SDS011;7457;50.960;6.830;2023-03-16T14:02:54;4.43;;;2.20;;
14732;SDS011;7457;50.960;6.830;2023-03-16T14:05:23;3.30;;;2.60;;
14732;SDS011;7457;50.960;6.830;2023-03-16T14:07:51;3.20;;;2.65;;
14732;SDS011;7457;50.960;6.830;2023-03-16T14:10:18;3.88;;;2.70;;
14732;SDS011;7457;50.960;6.830;2023-03-16T14:15:19;4.65;;;2.80;;
14732;SDS011;7457;50.960;6.830;2023-03-16T14:17:46;3.22;;;2.50;;
14732;SDS011;7457;50.960;6.830;2023-03-16T14:20:22;2.55;;;2.30;;
14732;SDS011;7457;50.960;6.830;2023-03-16T14:22:52;5.93;;;2.35;;
14732;SDS011;7457;50.960;6.830;2023-03-16T14:25:19;3.22;;;2.10;;
14732;SDS011;7457;50.960;6.830;2023-03-16T14:27:47;2.53;;;2.20;;
14732;SDS011;7457;50.960;6.830;2023-03-16T14:30:31;3.22;;;2.60;;
14732;SDS011;7457;50.960;6.830;2023-03-16T14:35:30;3.83;;;2.60;;
14732;SDS011;7457;50.960;6.830;2023-03-16T14:41:04;4.57;;;2.50;;
14732;SDS011;7457;50.960;6.830;2023-03-16T14:43:49;2.90;;;2.42;;
14732;SDS011;7457;50.960;6.830;2023-03-16T14:46:23;3.97;;;2.58;;
14732;SDS011;7457;50.960;6.830;2023-03-16T14:51:45;3.90;;;2.45;;
14732;SDS011;7457;50.960;6.830;2023-03-16T14:54:14;3.10;;;2.80;;
14732;SDS011;7457;50.960;6.830;2023-03-16T14:56:41;5.22;;;2.55;;
14732;SDS011;7457;50.960;6.830;2023-03-16T14:59:08;5.38;;;2.90;;
14732;SDS011;7457;50.960;6.830;2023-03-16T15:01:34;4.40;;;2.72;;
14732;SDS011;7457;50.960;6.830;2023-03-16T15:04:00;2.83;;;2.10;;
14732;SDS011;7457;50.960;6.830;2023-03-16T15:06:27;3.20;;;2.33;;
14732;SDS011;7457;50.960;6.830;2023-03-16T15:08:55;3.00;;;2.53;;
14732;SDS011;7457;50.960;6.830;2023-03-16T15:11:21;5.43;;;2.60;;
14732;SDS011;7457;50.960;6.830;2023-03-16T15:13:48;6.80;;;2.47;;
14732;SDS011;7457;50.960;6.830;2023-03-16T15:16:14;6.10;;;2.67;;
14732;SDS011;7457;50.960;6.830;2023-03-16T15:18:40;2.80;;;2.50;;
14732;SDS011;7457;50.960;6.830;2023-03-16T15:21:10;3.97;;;2.80;;
14732;SDS011;7457;50.960;6.830;2023-03-16T15:23:44;7.32;;;2.83;;
14732;SDS011;7457;50.960;6.830;2023-03-16T15:26:10;5.60;;;2.85;;
14732;SDS011;7457;50.960;6.830;2023-03-16T15:28:38;5.38;;;2.88;;
14732;SDS011;7457;50.960;6.830;2023-03-16T15:31:04;3.42;;;2.58;;
14732;SDS011;7457;50.960;6.830;2023-03-16T15:33:30;5.25;;;2.80;;
14732;SDS011;7457;50.960;6.830;2023-03-16T15:35:57;6.60;;;2.60;;
14732;SDS011;7457;50.960;6.830;2023-03-16T15:38:27;3.47;;;2.38;;
14732;SDS011;7457;50.960;6.830;2023-03-16T15:40:56;3.55;;;2.90;;
14732;SDS011;7457;50.960;6.830;2023-03-16T15:43:24;3.53;;;2.45;;
14732;SDS011;7457;50.960;6.830;2023-03-16T15:45:54;3.78;;;2.90;;
14732;SDS011;7457;50.960;6.830;2023-03-16T15:48:20;2.85;;;2.40;;
14732;SDS011;7457;50.960;6.830;2023-03-16T15:53:53;3.38;;;2.85;;
14732;SDS011;7457;50.960;6.830;2023-03-16T15:56:24;5.30;;;3.25;;
14732;SDS011;7457;50.960;6.830;2023-03-16T15:58:54;3.08;;;2.78;;
14732;SDS011;7457;50.960;6.830;2023-03-16T16:01:24;3.10;;;2.80;;
14732;SDS011;7457;50.960;6.830;2023-03-16T16:03:52;4.45;;;3.08;;
14732;SDS011;7457;50.960;6.830;2023-03-16T16:06:20;3.30;;;3.00;;
14732;SDS011;7457;50.960;6.830;2023-03-16T16:08:46;5.78;;;3.13;;
14732;SDS011;7457;50.960;6.830;2023-03-16T16:11:16;4.82;;;3.03;;
14732;SDS011;7457;50.960;6.830;2023-03-16T16:13:47;3.60;;;3.13;;
14732;SDS011;7457;50.960;6.830;2023-03-16T16:16:14;3.70;;;3.15;;
14732;SDS011;7457;50.960;6.830;2023-03-16T16:18:42;3.53;;;3.15;;
14732;SDS011;7457;50.960;6.830;2023-03-16T16:21:13;5.05;;;3.35;;
14732;SDS011;7457;50.960;6.830;2023-03-16T16:23:40;5.65;;;3.38;;
14732;SDS011;7457;50.960;6.830;2023-03-16T16:26:10;4.38;;;3.13;;
14732;SDS011;7457;50.960;6.830;2023-03-16T16:28:50;4.40;;;3.00;;
14732;SDS011;7457;50.960;6.830;2023-03-16T16:31:17;4.03;;;3.47;;
14732;SDS011;7457;50.960;6.830;2023-03-16T16:33:45;5.45;;;3.30;;
14732;SDS011;7457;50.960;6.830;2023-03-16T16:36:14;4.18;;;3.42;;
14732;SDS011;7457;50.960;6.830;2023-03-16T16:38:43;3.70;;;2.80;;
14732;SDS011;7457;50.960;6.830;2023-03-16T16:41:14;4.10;;;3.47;;
14732;SDS011;7457;50.960;6.830;2023-03-16T16:43:47;4.40;;;3.35;;